This is the latest recevied weather packets stored in our database for station/object OE-11053. If no packets are shown the sender has not sent any weather packets the latest 10 day(s).
| Time | Temp. | Humidity | Pressure | Rain* | Wind** | Luminosity | Snow |
|---|---|---|---|---|---|---|---|
| 1787907923 | 27.78° C | 53% | 1008.9 hPa | 0 mm | - | 582 W/m² | - |
| 1787907323 | 27.22° C | 54% | 1009 hPa | 0 mm | - | 556 W/m² | - |
| 1787906495 | 27.22° C | 54% | 1009.4 hPa | 0 mm | - | 531 W/m² | - |
| 1787906120 | 26.67° C | 56% | 1009.6 hPa | 0 mm | - | 512 W/m² | - |
| 1787905521 | 26.11° C | 56% | 1009.5 hPa | 0 mm | - | 492 W/m² | - |
| 1787904696 | 26.11° C | 56% | 1009.6 hPa | 0 mm | - | 467 W/m² | - |
| 1787904323 | 25° C | 58% | 1009.8 hPa | 0 mm | - | 448 W/m² | - |
| 1787903723 | 24.44° C | 59% | 1010 hPa | 0 mm | - | 409 W/m² | - |
| 1787902895 | 23.89° C | 60% | 1010.1 hPa | 0 mm | - | 358 W/m² | - |
| 1787902523 | 23.33° C | 62% | 1010.2 hPa | 0 mm | - | 313 W/m² | - |
| 1787901923 | 23.33° C | 61% | 1010.2 hPa | 0 mm | - | 294 W/m² | - |
| 1787901095 | 23.33° C | 62% | 1010.4 hPa | 0 mm | - | 288 W/m² | - |
| 1787900722 | 22.78° C | 63% | 1010.7 hPa | 0 mm | - | 288 W/m² | - |
| 1787900123 | 22.78° C | 63% | 1010.6 hPa | 0 mm | - | 256 W/m² | - |
| 1787899296 | 22.22° C | 65% | 1010.9 hPa | 0 mm | - | 224 W/m² | - |
| 1787898922 | 21.67° C | 66% | 1011 hPa | 0 mm | - | 185 W/m² | - |
| 1787898323 | 21.11° C | 69% | 1011.2 hPa | 0 mm | - | 115 W/m² | - |
| 1787897495 | 20.56° C | 71% | 1011.3 hPa | 0 mm | - | 102 W/m² | - |
| 1787897122 | 20° C | 74% | 1011.4 hPa | 0 mm | - | 121 W/m² | - |
| 1787896522 | 18.89° C | 80% | 1011.4 hPa | 0 mm | - | 83 W/m² | - |
| 1787895695 | 18.33° C | 80% | 1011.5 hPa | 0 mm | - | 38 W/m² | - |
| 1787895323 | 18.89° C | 79% | 1011.3 hPa | 0 mm | - | 45 W/m² | - |
| 1787894723 | 18.33° C | 80% | 1011.3 hPa | 0 mm | - | 32 W/m² | - |
| 1787893896 | 18.89° C | 78% | 1011.1 hPa | 0 mm | - | 26 W/m² | - |
| 1787893523 | 19.44° C | 73% | 1011 hPa | 0 mm | - | 19 W/m² | - |
* Rain latest hour (hover to see other rain measurements)
** Current wind speed in m/s (hover to see current wind gust speed)